createdAt,value
2023-03-16T00:02:02.668Z,101983.72
2023-03-16T00:04:30.667Z,101993.88
2023-03-16T00:06:58.324Z,101992.19
2023-03-16T00:09:31.064Z,101992.19
2023-03-16T00:11:58.929Z,101988.84
2023-03-16T00:14:26.550Z,101984.59
2023-03-16T00:16:53.396Z,101981.25
2023-03-16T00:19:19.874Z,101969.41
2023-03-16T00:21:46.366Z,101966.84
2023-03-16T00:24:13.317Z,101969.41
2023-03-16T00:26:39.820Z,101966.03
2023-03-16T00:29:06.268Z,101965.16
2023-03-16T00:31:33.955Z,101971.94
2023-03-16T00:34:02.810Z,101960.09
2023-03-16T00:36:30.389Z,101949.94
2023-03-16T00:38:56.891Z,101956.72
2023-03-16T00:41:23.363Z,101950.81
2023-03-16T00:43:51.806Z,101942.34
2023-03-16T00:46:18.406Z,101936.44
2023-03-16T00:48:47.508Z,101938.97
2023-03-16T00:51:17.198Z,101940.66
2023-03-16T00:53:46.664Z,101935.59
2023-03-16T00:56:13.847Z,101944.06
2023-03-16T00:58:43.072Z,101942.41
2023-03-16T01:01:14.004Z,101928.00
2023-03-16T01:03:41.219Z,101928.84
2023-03-16T01:06:13.847Z,101922.94
2023-03-16T01:08:40.994Z,101907.72
2023-03-16T01:11:13.633Z,101907.72
2023-03-16T01:13:40.610Z,101906.88
2023-03-16T01:16:08.028Z,101903.50
2023-03-16T01:18:34.707Z,101898.41
2023-03-16T01:21:06.399Z,101903.50
2023-03-16T01:23:37.401Z,101901.81
2023-03-16T01:26:07.892Z,101902.66
2023-03-16T01:28:34.815Z,101895.88
2023-03-16T01:31:14.276Z,101882.38
2023-03-16T01:33:42.330Z,101886.59
2023-03-16T01:36:17.415Z,101880.66
2023-03-16T01:38:44.771Z,101880.66
2023-03-16T01:41:14.241Z,101868.84
2023-03-16T01:43:41.689Z,101870.53
2023-03-16T01:46:08.225Z,101869.69
2023-03-16T01:48:49.936Z,101867.16
2023-03-16T01:51:22.410Z,101875.59
2023-03-16T01:53:53.444Z,101866.31
2023-03-16T01:56:29.572Z,101860.38
2023-03-16T01:58:59.468Z,101849.41
2023-03-16T02:01:29.494Z,101843.50
2023-03-16T02:04:07.526Z,101842.63
2023-03-16T02:06:35.761Z,101840.09
2023-03-16T02:09:02.748Z,101841.81
2023-03-16T02:11:30.079Z,101838.44
2023-03-16T02:14:02.903Z,101838.44
2023-03-16T02:16:29.475Z,101834.22
2023-03-16T02:18:56.040Z,101830.00
2023-03-16T02:21:29.703Z,101820.69
2023-03-16T02:23:56.304Z,101819.00
2023-03-16T02:26:28.880Z,101818.19
2023-03-16T02:29:17.136Z,101810.56
2023-03-16T02:31:44.763Z,101811.44
2023-03-16T02:34:14.434Z,101812.28
2023-03-16T02:36:43.764Z,101814.00
2023-03-16T02:39:10.260Z,101811.47
2023-03-16T02:41:37.081Z,101805.56
2023-03-16T02:44:14.764Z,101811.47
2023-03-16T02:46:43.499Z,101811.47
2023-03-16T02:49:45.845Z,101815.72
2023-03-16T02:52:13.059Z,101818.28
2023-03-16T02:54:39.838Z,101821.69
2023-03-16T02:57:06.429Z,101825.06
2023-03-16T02:59:33.056Z,101831.81
2023-03-16T03:01:59.558Z,101826.75
2023-03-16T03:04:26.229Z,101826.69
2023-03-16T03:06:52.738Z,101821.63
2023-03-16T03:09:19.695Z,101811.47
2023-03-16T03:11:50.682Z,101811.47
2023-03-16T03:14:17.304Z,101807.28
2023-03-16T03:16:46.982Z,101802.16
2023-03-16T03:19:13.854Z,101802.16
2023-03-16T03:21:41.211Z,101796.22
2023-03-16T03:24:08.847Z,101801.31
2023-03-16T03:26:35.759Z,101798.78
2023-03-16T03:29:02.418Z,101797.06
2023-03-16T03:31:28.993Z,101802.13
2023-03-16T03:33:56.675Z,101797.88
2023-03-16T03:36:23.227Z,101791.16
2023-03-16T03:38:49.809Z,101780.97
2023-03-16T03:41:16.537Z,101782.66
2023-03-16T03:43:44.427Z,101773.34
2023-03-16T03:46:10.932Z,101766.56
2023-03-16T03:48:37.453Z,101775.84
2023-03-16T03:51:05.556Z,101768.22
2023-03-16T03:53:32.676Z,101764.00
2023-03-16T03:55:59.146Z,101760.56
2023-03-16T03:58:25.580Z,101757.19
2023-03-16T04:00:52.296Z,101754.66
2023-03-16T04:03:18.837Z,101758.84
2023-03-16T04:05:45.353Z,101763.91
2023-03-16T04:08:11.964Z,101758.81
2023-03-16T04:10:38.586Z,101757.09
2023-03-16T04:13:05.197Z,101750.31
2023-03-16T04:15:32.894Z,101740.16
2023-03-16T04:18:00.027Z,101749.41
2023-03-16T04:20:26.857Z,101742.66
2023-03-16T04:22:58.419Z,101739.25
2023-03-16T04:25:26.726Z,101737.56
2023-03-16T04:27:53.568Z,101730.78
2023-03-16T04:30:20.300Z,101735.00
2023-03-16T04:32:46.859Z,101731.59
2023-03-16T04:35:15.799Z,101736.63
2023-03-16T04:37:42.444Z,101736.63
2023-03-16T04:40:16.004Z,101741.69
2023-03-16T04:42:44.145Z,101729.91
2023-03-16T04:45:12.263Z,101746.81
2023-03-16T04:47:39.733Z,101739.22
2023-03-16T04:50:07.635Z,101739.22
2023-03-16T04:52:34.187Z,101734.16
2023-03-16T04:55:01.376Z,101740.06
2023-03-16T04:57:27.954Z,101735.00
2023-03-16T04:59:54.462Z,101730.81
2023-03-16T05:02:21.049Z,101735.88
2023-03-16T05:04:48.380Z,101740.13
2023-03-16T05:07:14.890Z,101735.06
2023-03-16T05:09:41.970Z,101734.19
2023-03-16T05:12:09.051Z,101743.53
2023-03-16T05:14:36.145Z,101735.97
2023-03-16T05:17:03.872Z,101735.91
2023-03-16T05:19:30.575Z,101734.25
2023-03-16T05:21:57.723Z,101733.44
2023-03-16T05:24:24.578Z,101726.66
2023-03-16T05:26:51.055Z,101724.97
2023-03-16T05:29:17.630Z,101724.97
2023-03-16T05:31:46.802Z,101723.31
2023-03-16T05:34:13.645Z,101730.03
2023-03-16T05:36:40.149Z,101719.91
2023-03-16T05:39:08.475Z,101725.84
2023-03-16T05:41:35.311Z,101722.44
2023-03-16T05:44:02.560Z,101720.78
2023-03-16T05:46:29.121Z,101718.25
2023-03-16T05:48:55.727Z,101718.25
2023-03-16T05:51:22.210Z,101715.72
2023-03-16T05:53:48.996Z,101711.47
2023-03-16T05:56:15.543Z,101714.88
2023-03-16T05:58:42.358Z,101698.78
2023-03-16T06:01:09.618Z,101700.50
2023-03-16T06:03:36.708Z,101696.25
2023-03-16T06:06:03.473Z,101698.78
2023-03-16T06:08:29.977Z,101702.19
2023-03-16T06:10:56.512Z,101700.50
2023-03-16T06:13:23.132Z,101703.91
2023-03-16T06:15:49.952Z,101704.75
2023-03-16T06:18:16.528Z,101697.97
2023-03-16T06:20:43.450Z,101698.84
2023-03-16T06:23:09.989Z,101698.03
2023-03-16T06:25:38.362Z,101679.44
2023-03-16T06:28:07.389Z,101681.97
2023-03-16T06:30:33.912Z,101688.75
2023-03-16T06:33:02.132Z,101679.50
2023-03-16T06:35:28.764Z,101687.13
2023-03-16T06:37:55.264Z,101681.22
2023-03-16T06:40:22.010Z,101678.69
2023-03-16T06:42:48.640Z,101679.59
2023-03-16T06:45:16.716Z,101679.63
2023-03-16T06:47:44.137Z,101670.34
2023-03-16T06:50:11.868Z,101666.13
2023-03-16T06:52:38.686Z,101667.84
2023-03-16T06:55:05.909Z,101674.66
2023-03-16T06:57:32.629Z,101667.06
2023-03-16T06:59:59.191Z,101677.25
2023-03-16T07:02:25.665Z,101669.66
2023-03-16T07:04:52.283Z,101662.94
2023-03-16T07:07:19.384Z,101666.34
2023-03-16T07:09:46.259Z,101665.53
2023-03-16T07:12:13.825Z,101657.09
2023-03-16T07:14:40.511Z,101660.47
2023-03-16T07:17:07.150Z,101662.16
2023-03-16T07:19:33.811Z,101659.63
2023-03-16T07:22:00.462Z,101657.94
2023-03-16T07:24:27.189Z,101663.06
2023-03-16T07:26:54.052Z,101661.38
2023-03-16T07:29:20.575Z,101657.16
2023-03-16T07:31:47.287Z,101666.47
2023-03-16T07:34:14.007Z,101654.63
2023-03-16T07:36:40.788Z,101659.72
2023-03-16T07:39:07.370Z,101653.75
2023-03-16T07:41:33.904Z,101658.81
2023-03-16T07:44:00.718Z,101658.00
2023-03-16T07:46:27.437Z,101656.28
2023-03-16T07:48:54.041Z,101658.81
2023-03-16T07:51:21.439Z,101652.91
2023-03-16T07:53:48.114Z,101658.81
2023-03-16T07:56:14.578Z,101665.59
2023-03-16T07:58:41.961Z,101669.84
2023-03-16T08:01:10.925Z,101669.03
2023-03-16T08:03:39.033Z,101669.84
2023-03-16T08:06:05.796Z,101665.66
2023-03-16T08:08:33.008Z,101667.38
2023-03-16T08:10:59.556Z,101656.41
2023-03-16T08:13:27.697Z,101659.00
2023-03-16T08:16:02.018Z,101658.22
2023-03-16T08:18:32.477Z,101648.97
2023-03-16T08:20:59.153Z,101639.72
2023-03-16T08:23:26.087Z,101636.31
2023-03-16T08:25:57.761Z,101639.72
2023-03-16T08:28:25.930Z,101637.22
2023-03-16T08:30:54.011Z,101620.28
2023-03-16T08:33:22.963Z,101633.88
2023-03-16T08:35:50.762Z,101638.13
2023-03-16T08:38:17.522Z,101646.59
2023-03-16T08:40:49.950Z,101637.31
2023-03-16T08:43:18.071Z,101635.59
2023-03-16T08:45:49.218Z,101642.38
2023-03-16T08:48:15.851Z,101640.69
2023-03-16T08:50:43.327Z,101644.09
2023-03-16T08:53:14.383Z,101650.03
2023-03-16T08:55:41.859Z,101643.25
2023-03-16T08:58:10.527Z,101639.88
2023-03-16T09:00:37.621Z,101640.72
2023-03-16T09:03:04.768Z,101639.88
2023-03-16T09:05:31.618Z,101638.19
2023-03-16T09:07:58.939Z,101633.09
2023-03-16T09:10:27.832Z,101638.19
2023-03-16T09:12:54.510Z,101628.03
2023-03-16T09:15:21.856Z,101620.38
2023-03-16T09:17:48.500Z,101619.53
2023-03-16T09:20:26.129Z,101622.91
2023-03-16T09:22:55.040Z,101623.78
2023-03-16T09:25:22.369Z,101628.03
2023-03-16T09:27:48.881Z,101625.50
2023-03-16T09:30:17.046Z,101623.78
2023-03-16T09:32:43.706Z,101624.63
2023-03-16T09:35:11.992Z,101620.38
2023-03-16T09:37:45.104Z,101620.38
2023-03-16T09:40:29.311Z,101616.16
2023-03-16T09:43:14.487Z,101613.59
2023-03-16T09:45:53.181Z,101611.06
2023-03-16T09:48:21.050Z,101608.47
2023-03-16T09:50:49.752Z,101596.59
2023-03-16T09:53:29.688Z,101610.16
2023-03-16T09:56:04.195Z,101608.47
2023-03-16T09:58:32.518Z,101610.97
2023-03-16T10:01:03.212Z,101609.25
2023-03-16T10:03:51.122Z,101604.09
2023-03-16T10:06:17.963Z,101598.94
2023-03-16T10:08:51.526Z,101590.38
2023-03-16T10:11:26.809Z,101586.06
2023-03-16T10:14:18.818Z,101584.25
2023-03-16T10:16:52.714Z,101582.44
2023-03-16T10:19:32.805Z,101579.84
2023-03-16T10:22:02.706Z,101584.88
2023-03-16T10:24:44.257Z,101572.03
2023-03-16T10:27:21.200Z,101577.94
2023-03-16T10:29:47.782Z,101576.94
2023-03-16T10:32:17.390Z,101570.91
2023-03-16T10:34:48.672Z,101572.44
2023-03-16T10:37:15.273Z,101564.56
2023-03-16T10:39:43.253Z,101567.78
2023-03-16T10:42:21.429Z,101553.09
2023-03-16T10:44:48.513Z,101551.31
2023-03-16T10:47:30.043Z,101548.63
2023-03-16T10:49:56.850Z,101552.63
2023-03-16T10:52:34.910Z,101552.53
2023-03-16T10:55:15.943Z,101544.75
2023-03-16T10:57:47.921Z,101540.44
2023-03-16T11:00:21.212Z,101545.56
2023-03-16T11:02:54.339Z,101539.56
2023-03-16T11:05:28.509Z,101527.56
2023-03-16T11:08:16.560Z,101525.03
2023-03-16T11:10:55.581Z,101525.91
2023-03-16T11:13:24.747Z,101523.31
2023-03-16T11:16:05.307Z,101517.28
2023-03-16T11:18:37.295Z,101510.50
2023-03-16T11:21:13.048Z,101526.72
2023-03-16T11:23:49.678Z,101503.81
2023-03-16T11:26:28.718Z,101503.00
2023-03-16T11:29:09.502Z,101495.22
2023-03-16T11:31:53.958Z,101494.25
2023-03-16T11:34:31.557Z,101485.69
2023-03-16T11:37:16.935Z,101479.59
2023-03-16T11:39:46.496Z,101478.66
2023-03-16T11:42:24.201Z,101479.34
2023-03-16T11:45:16.468Z,101476.66
2023-03-16T11:47:55.253Z,101473.97
2023-03-16T11:50:33.693Z,101482.34
2023-03-16T11:53:13.374Z,101474.59
2023-03-16T11:55:59.900Z,101488.06
2023-03-16T11:58:53.062Z,101471.72
2023-03-16T12:02:03.076Z,101468.88
2023-03-16T12:05:09.723Z,101466.09
2023-03-16T12:08:39.178Z,101449.53
2023-03-16T12:11:10.311Z,101451.97
2023-03-16T12:13:55.035Z,101454.38
2023-03-16T12:16:54.474Z,101451.31
2023-03-16T12:19:41.798Z,101453.44
2023-03-16T12:22:24.108Z,101440.31
2023-03-16T12:24:50.770Z,101430.63
2023-03-16T12:27:25.718Z,101431.41
2023-03-16T12:30:35.660Z,101433.78
2023-03-16T12:33:16.126Z,101428.72
2023-03-16T12:35:49.288Z,101429.19
2023-03-16T12:38:43.926Z,101423.66
2023-03-16T12:41:41.198Z,101412.13
2023-03-16T12:44:58.622Z,101413.69
2023-03-16T12:47:49.778Z,101407.81
2023-03-16T12:50:18.888Z,101400.22
2023-03-16T12:52:51.814Z,101395.97
2023-03-16T12:55:28.144Z,101395.66
2023-03-16T12:58:05.108Z,101377.88
2023-03-16T13:00:40.776Z,101371.75
2023-03-16T13:03:15.609Z,101355.47
2023-03-16T13:05:55.617Z,101342.94
2023-03-16T13:08:23.501Z,101348.13
2023-03-16T13:11:05.540Z,101346.06
2023-03-16T13:13:34.271Z,101336.34
2023-03-16T13:16:23.648Z,101334.09
2023-03-16T13:18:52.560Z,101341.69
2023-03-16T13:21:35.271Z,101343.25
2023-03-16T13:24:20.172Z,101339.25
2023-03-16T13:26:49.611Z,101333.00
2023-03-16T13:29:27.429Z,101331.81
2023-03-16T13:31:58.040Z,101327.00
2023-03-16T13:34:44.743Z,101321.91
2023-03-16T13:37:15.060Z,101310.09
2023-03-16T13:39:41.691Z,101311.44
2023-03-16T13:42:22.318Z,101307.19
2023-03-16T13:44:52.658Z,101311.44
2023-03-16T13:47:20.654Z,101302.66
2023-03-16T13:49:50.018Z,101292.28
2023-03-16T13:52:25.505Z,101288.59
2023-03-16T13:54:53.212Z,101288.44
2023-03-16T13:57:24.171Z,101285.91
2023-03-16T13:59:50.732Z,101293.25
2023-03-16T14:02:19.579Z,101287.25
2023-03-16T14:04:47.064Z,101288.59
2023-03-16T14:07:20.094Z,101285.41
2023-03-16T14:09:46.782Z,101283.28
2023-03-16T14:12:14.996Z,101287.34
2023-03-16T14:14:42.125Z,101276.50
2023-03-16T14:17:14.936Z,101275.31
2023-03-16T14:19:57.700Z,101274.25
2023-03-16T14:22:34.726Z,101279.09
2023-03-16T14:25:04.792Z,101273.41
2023-03-16T14:27:42.738Z,101255.59
2023-03-16T14:30:25.958Z,101262.19
2023-03-16T14:33:33.299Z,101266.84
2023-03-16T14:36:08.104Z,101255.44
2023-03-16T14:38:36.899Z,101259.13
2023-03-16T14:41:13.378Z,101254.13
2023-03-16T14:43:47.944Z,101233.81
2023-03-16T14:46:22.202Z,101249.63
2023-03-16T14:48:50.571Z,101243.63
2023-03-16T14:51:17.079Z,101235.81
2023-03-16T14:53:44.796Z,101231.91
2023-03-16T14:56:13.667Z,101232.06
2023-03-16T14:58:41.208Z,101221.63
2023-03-16T15:01:16.202Z,101218.72
2023-03-16T15:03:43.773Z,101217.75
2023-03-16T15:06:10.652Z,101221.50
2023-03-16T15:08:44.494Z,101209.66
2023-03-16T15:11:11.588Z,101201.91
2023-03-16T15:13:41.343Z,101202.31
2023-03-16T15:16:11.889Z,101199.97
2023-03-16T15:18:41.834Z,101197.31
2023-03-16T15:21:13.724Z,101197.16
2023-03-16T15:23:42.839Z,101186.25
2023-03-16T15:26:12.122Z,101183.56
2023-03-16T15:28:38.716Z,101190.13
2023-03-16T15:31:05.272Z,101178.66
2023-03-16T15:33:32.189Z,101174.97
2023-03-16T15:36:02.131Z,101173.09
2023-03-16T15:38:34.717Z,101170.16
2023-03-16T15:41:01.545Z,101168.38
2023-03-16T15:43:30.186Z,101170.28
2023-03-16T15:45:58.913Z,101175.66
2023-03-16T15:48:26.308Z,101172.63
2023-03-16T15:50:56.118Z,101168.66
2023-03-16T15:53:34.065Z,101165.31
2023-03-16T15:56:05.918Z,101169.44
2023-03-16T15:58:35.229Z,101168.50
2023-03-16T16:01:03.256Z,101169.28
2023-03-16T16:03:32.195Z,101164.78
2023-03-16T16:05:58.718Z,101157.00
2023-03-16T16:08:25.693Z,101161.50
2023-03-16T16:10:53.561Z,101154.13
2023-03-16T16:13:34.058Z,101156.28
2023-03-16T16:16:13.976Z,101151.06
2023-03-16T16:18:43.720Z,101146.44
2023-03-16T16:21:24.532Z,101146.44
2023-03-16T16:23:54.417Z,101149.09
2023-03-16T16:26:41.630Z,101140.00
2023-03-16T16:29:23.087Z,101145.50
2023-03-16T16:31:51.595Z,101145.59
2023-03-16T16:34:24.525Z,101141.31
2023-03-16T16:36:51.808Z,101132.84
2023-03-16T16:39:18.251Z,101134.63
2023-03-16T16:41:45.356Z,101137.38
2023-03-16T16:44:17.518Z,101140.31
2023-03-16T16:46:44.787Z,101141.47
2023-03-16T16:49:30.519Z,101134.25
2023-03-16T16:51:58.479Z,101138.78
2023-03-16T16:54:29.793Z,101140.75
2023-03-16T16:56:58.098Z,101153.09
2023-03-16T16:59:36.870Z,101155.16
2023-03-16T17:02:21.149Z,101159.81
2023-03-16T17:04:47.826Z,101150.69
2023-03-16T17:07:14.354Z,101142.50
2023-03-16T17:09:41.134Z,101142.00
2023-03-16T17:12:21.361Z,101143.06
2023-03-16T17:14:49.639Z,101150.25
2023-03-16T17:17:17.824Z,101147.97
2023-03-16T17:19:46.801Z,101154.22
2023-03-16T17:22:24.943Z,101145.97
2023-03-16T17:24:53.040Z,101147.97
2023-03-16T17:27:26.640Z,101147.34
2023-03-16T17:29:54.684Z,101156.94
2023-03-16T17:32:22.853Z,101162.31
2023-03-16T17:34:50.947Z,101150.56
2023-03-16T17:37:20.026Z,101155.94
2023-03-16T17:39:46.657Z,101146.78
2023-03-16T17:42:18.511Z,101137.66
2023-03-16T17:44:53.062Z,101141.38
2023-03-16T17:47:25.108Z,101151.84
2023-03-16T17:49:51.893Z,101143.56
2023-03-16T17:52:21.468Z,101145.44
2023-03-16T17:54:49.809Z,101137.91
2023-03-16T17:57:18.724Z,101127.78
2023-03-16T17:59:46.947Z,101121.13
2023-03-16T18:02:39.646Z,101127.41
2023-03-16T18:05:15.708Z,101131.03
2023-03-16T18:07:42.223Z,101132.06
2023-03-16T18:10:14.840Z,101130.63
2023-03-16T18:12:41.669Z,101142.66
2023-03-16T18:15:18.651Z,101140.25
2023-03-16T18:17:45.984Z,101139.53
2023-03-16T18:20:33.690Z,101136.19
2023-03-16T18:23:01.926Z,101141.44
2023-03-16T18:25:34.500Z,101149.25
2023-03-16T18:28:02.232Z,101150.22
2023-03-16T18:30:29.824Z,101153.75
2023-03-16T18:32:58.461Z,101144.47
2023-03-16T18:35:25.294Z,101142.00
2023-03-16T18:37:54.796Z,101136.13
2023-03-16T18:40:23.575Z,101137.09
2023-03-16T18:42:51.416Z,101123.50
2023-03-16T18:45:18.150Z,101141.50
2023-03-16T18:47:50.906Z,101148.47
2023-03-16T18:50:28.786Z,101146.81
2023-03-16T18:52:56.652Z,101141.81
2023-03-16T18:55:25.423Z,101132.53
2023-03-16T18:57:52.794Z,101117.31
2023-03-16T19:00:22.291Z,101123.31
2023-03-16T19:02:53.204Z,101124.25
2023-03-16T19:05:25.988Z,101114.97
2023-03-16T19:07:53.241Z,101115.06
2023-03-16T19:10:35.608Z,101123.66
2023-03-16T19:13:02.148Z,101126.28
2023-03-16T19:15:32.542Z,101131.50
2023-03-16T19:18:00.041Z,101135.00
2023-03-16T19:20:31.755Z,101125.72
2023-03-16T19:23:06.381Z,101118.13
2023-03-16T19:25:41.506Z,101109.69
2023-03-16T19:28:14.891Z,101106.38
2023-03-16T19:30:41.787Z,101101.31
2023-03-16T19:33:19.737Z,101087.78
2023-03-16T19:35:51.756Z,101096.34
2023-03-16T19:38:20.194Z,101090.44
2023-03-16T19:40:52.027Z,101090.47
2023-03-16T19:43:20.513Z,101083.69
2023-03-16T19:45:48.281Z,101087.97
2023-03-16T19:48:22.602Z,101082.03
2023-03-16T19:50:50.658Z,101082.09
2023-03-16T19:53:19.776Z,101084.66
2023-03-16T19:55:48.269Z,101084.72
2023-03-16T19:58:38.437Z,101072.81
2023-03-16T20:01:06.629Z,101077.16
2023-03-16T20:03:36.424Z,101091.72
2023-03-16T20:06:02.920Z,101088.31
2023-03-16T20:08:29.847Z,101081.59
2023-03-16T20:11:12.669Z,101079.94
2023-03-16T20:13:39.513Z,101069.00
2023-03-16T20:16:06.717Z,101085.25
2023-03-16T20:18:36.174Z,101079.31
2023-03-16T20:21:02.716Z,101069.13
2023-03-16T20:23:30.352Z,101074.31
2023-03-16T20:26:02.003Z,101081.13
2023-03-16T20:28:38.582Z,101091.34
2023-03-16T20:31:08.126Z,101094.78
2023-03-16T20:33:35.001Z,101086.28
2023-03-16T20:36:01.894Z,101077.78
2023-03-16T20:38:28.465Z,101058.16
2023-03-16T20:40:54.994Z,101045.41
2023-03-16T20:43:30.455Z,101051.34
2023-03-16T20:45:59.860Z,101064.94
2023-03-16T20:48:27.473Z,101058.13
2023-03-16T20:50:56.195Z,101054.72
2023-03-16T20:53:23.664Z,101050.44
2023-03-16T20:55:51.622Z,101053.81
2023-03-16T20:58:25.219Z,101044.47
2023-03-16T21:00:57.431Z,101044.44
2023-03-16T21:03:27.570Z,101046.16
2023-03-16T21:05:58.423Z,101040.16
2023-03-16T21:08:27.512Z,101047.84
2023-03-16T21:10:56.282Z,101049.56
2023-03-16T21:13:33.045Z,101050.47
2023-03-16T21:16:01.976Z,101047.13
2023-03-16T21:18:29.492Z,101050.53
2023-03-16T21:20:56.330Z,101042.03
2023-03-16T21:23:23.676Z,101033.56
2023-03-16T21:25:56.761Z,101032.72
2023-03-16T21:28:25.907Z,101036.94
2023-03-16T21:30:54.903Z,101040.34
2023-03-16T21:33:32.035Z,101036.22
2023-03-16T21:36:00.075Z,101042.19
2023-03-16T21:38:31.535Z,101048.19
2023-03-16T21:40:59.593Z,101038.88
2023-03-16T21:43:26.970Z,101034.72
2023-03-16T21:45:55.178Z,101028.78
2023-03-16T21:48:24.823Z,101033.94
2023-03-16T21:50:53.850Z,101039.97
2023-03-16T21:53:34.463Z,101043.41
2023-03-16T21:56:01.234Z,101033.25
2023-03-16T21:58:27.677Z,101028.25
2023-03-16T22:00:55.548Z,101025.72
2023-03-16T22:03:37.879Z,101025.75
2023-03-16T22:06:14.551Z,101028.31
2023-03-16T22:08:41.112Z,101025.78
2023-03-16T22:11:15.952Z,101019.00
2023-03-16T22:13:42.652Z,101007.13
2023-03-16T22:16:15.902Z,101002.09
2023-03-16T22:18:43.599Z,101002.13
2023-03-16T22:21:32.478Z,101023.44
2023-03-16T22:24:00.119Z,101006.47
2023-03-16T22:26:28.701Z,101003.13
2023-03-16T22:28:56.581Z,101009.09
2023-03-16T22:31:31.877Z,101015.91
2023-03-16T22:33:59.008Z,101016.81
2023-03-16T22:36:25.636Z,101013.44
2023-03-16T22:39:01.572Z,101013.47
2023-03-16T22:41:29.760Z,101022.78
2023-03-16T22:43:57.244Z,101005.81
2023-03-16T22:46:26.302Z,101016.88
2023-03-16T22:48:54.531Z,101010.94
2023-03-16T22:51:26.761Z,101000.78
2023-03-16T22:53:57.275Z,101004.19
2023-03-16T22:56:24.436Z,101000.75
2023-03-16T22:58:55.211Z,101007.56
2023-03-16T23:01:34.186Z,100993.13
2023-03-16T23:04:01.857Z,100988.84
2023-03-16T23:06:31.511Z,100990.56
2023-03-16T23:08:58.209Z,101002.41
2023-03-16T23:11:31.449Z,101012.56
2023-03-16T23:13:58.501Z,101010.03
2023-03-16T23:16:36.611Z,101016.81
2023-03-16T23:19:09.836Z,101005.72
2023-03-16T23:21:42.119Z,100995.44
2023-03-16T23:24:08.813Z,100990.38
2023-03-16T23:26:35.587Z,100984.41
2023-03-16T23:29:02.124Z,100994.63
2023-03-16T23:31:29.454Z,100986.06
2023-03-16T23:33:56.573Z,100990.34
2023-03-16T23:36:24.901Z,100996.28
2023-03-16T23:38:51.899Z,100998.81
2023-03-16T23:41:22.074Z,100994.56
2023-03-16T23:43:49.139Z,100986.09
2023-03-16T23:46:19.702Z,100998.03
2023-03-16T23:48:48.845Z,100990.41
2023-03-16T23:51:21.446Z,101010.81
2023-03-16T23:53:49.024Z,101020.19
2023-03-16T23:56:15.544Z,101003.25
2023-03-16T23:58:42.147Z,101000.75
